« Back
NWS Peachtree City, Ga » Text Product » AHN Terminal Aerodrome Forecast


Printer-friendly Version
Current Version              Previous Versions:   1  2  3  4  5  6  7  8  9  

Terminal Aerodrome Forecast

749
FTAK31 PAJN 311100
TAFAHN
TAF
PAHN 311120Z 3112/0112 10012KT P6SM -SHRA BKN015 BKN030 OVC070
     FM010400 09008KT P6SM VCSH OVC050
      AMD LTD TO CLD VIS AND WIND=



USA.gov is the U.S. government's official web portal to all federal, state and local government web resources and services.